Hauptseite
METAR-TAF:

METAR-TAF

Flughäfen :

Butler, Pennsylvania, Vereinigte Staaten

Breite: 40-47N, Länge: 079-57W, Höhe: 380 m

Beobachtung

Neuester Wetterbericht von vor 56 Minuten, um 08:56 UTC
Wind 5 kt aus Ost/Südost
Temperatur 18°C
Luftfeuchtigkeit 77%
Luftdruck 1020 hPa
Sichtweite: 16.1 km
Himmel klar

METAR: KBTP 270856Z AUTO 11005KT 10SM CLR 18/14 A3013 RMK AO2 SLP200 T01830144 56002

Zeit: 05:52 (09:52 UTC)


TAF: fehlend

Wetterbeobachtungen und Prognosen von mehr als 4000 Flughäfen (METAR und TAF Bericht).

Die verfügbaren Stationen werden durch gelbe und rote Markierungen auf der Karte dargestellt.

Führen Sie die Maus auf sie, um den Namen der Station zu sehen.

Darauf klicken, um die Beobachtung von Wetterbeobachtungen und Prognosen zu sehen.

Um die Karte zu ändern : klicken Sie auf den grünen Tasten mit einem schwarzen Kreuz Zum Vergrößern, auf den grünen Button mit einem Gedankenstrich zu verkleinern, oder auf die grünen Pfeile für benachbarte Karten.


METAR-TAF: